Time;durP1;ratioP1;P1;durP2;ratioP2;P2;SDS_P1;SDS_P2;PMS_P1;PMS_P2;Temp;Humidity;BMP_temperature;BMP_pressure;BME280_temperature;BME280_humidity;BME280_pressure;Samples;Min_cycle;Max_cycle;Signal;HPM_P1;HPM_P2
2021/08/01 00:00:12;;;;;;;10.87;9.97;;;19.20;99.90;;;;;;5092410;28;20172;-70
2021/08/01 00:02:39;;;;;;;11.43;10.63;;;19.20;99.90;;;;;;5090396;28;20177;-70
2021/08/01 00:05:05;;;;;;;11.00;10.20;;;19.20;99.90;;;;;;5103795;28;20414;-72
2021/08/01 00:07:33;;;;;;;10.70;9.90;;;19.30;99.90;;;;;;5111306;28;20424;-71
2021/08/01 00:10:00;;;;;;;10.90;10.10;;;19.30;99.90;;;;;;5111408;28;20406;-70
2021/08/01 00:12:26;;;;;;;9.90;9.20;;;19.20;99.90;;;;;;5111692;28;20457;-71
2021/08/01 00:14:53;;;;;;;11.07;10.17;;;19.30;99.90;;;;;;5112635;28;20413;-71
2021/08/01 00:17:18;;;;;;;9.97;9.27;;;19.20;99.90;;;;;;5112308;28;20778;-75
2021/08/01 00:19:44;;;;;;;10.13;9.43;;;19.20;99.90;;;;;;5111707;28;20398;-71
2021/08/01 00:22:10;;;;;;;10.53;9.63;;;19.10;99.90;;;;;;5109083;28;20273;-71
2021/08/01 00:24:36;;;;;;;10.17;9.47;;;19.10;99.90;;;;;;5089850;28;20667;-71
2021/08/01 00:27:02;;;;;;;10.43;9.63;;;19.10;99.90;;;;;;5092160;28;20403;-71
2021/08/01 00:29:28;;;;;;;10.53;9.73;;;19.10;99.90;;;;;;5091113;28;20485;-71
2021/08/01 00:31:54;;;;;;;11.60;10.70;;;19.10;99.90;;;;;;5091969;28;20457;-71
2021/08/01 00:34:19;;;;;;;11.60;10.70;;;19.10;99.90;;;;;;5091874;28;20184;-76
2021/08/01 00:36:45;;;;;;;10.70;10.00;;;19.10;99.90;;;;;;5090891;28;20188;-71
2021/08/01 00:39:12;;;;;;;10.63;9.83;;;19.00;99.90;;;;;;5091886;28;20165;-71
2021/08/01 00:41:37;;;;;;;11.40;10.60;;;19.00;99.90;;;;;;5102037;28;20244;-71
2021/08/01 00:44:03;;;;;;;10.83;10.03;;;19.00;99.90;;;;;;5115692;28;20456;-72
2021/08/01 00:46:29;;;;;;;11.97;10.97;;;19.00;99.90;;;;;;5116477;28;20162;-71
2021/08/01 00:48:55;;;;;;;11.30;10.30;;;19.00;99.90;;;;;;5116013;28;20508;-70
2021/08/01 00:51:21;;;;;;;11.60;10.73;;;19.00;99.90;;;;;;5115259;28;20409;-74
2021/08/01 00:53:48;;;;;;;12.60;11.30;;;19.00;99.90;;;;;;5115365;28;20426;-71
2021/08/01 00:56:16;;;;;;;11.47;10.57;;;19.00;99.90;;;;;;5108802;28;20421;-71
2021/08/01 00:58:42;;;;;;;11.30;10.40;;;18.90;99.90;;;;;;5114565;28;20420;-71
2021/08/01 01:01:13;;;;;;;11.73;10.80;;;18.90;99.90;;;;;;5115216;28;20405;-71
2021/08/01 01:03:45;;;;;;;11.00;10.10;;;18.90;99.90;;;;;;5114114;28;20718;-71
2021/08/01 01:06:18;;;;;;;12.33;11.23;;;18.90;99.90;;;;;;5113988;28;20416;-71
2021/08/01 01:09:09;;;;;;;11.37;10.40;;;18.90;99.90;;;;;;5114730;28;20419;-71
2021/08/01 01:11:39;;;;;;;12.87;11.77;;;18.90;99.90;;;;;;5108473;28;20452;-71
2021/08/01 01:14:09;;;;;;;12.60;11.70;;;18.90;99.90;;;;;;5101349;28;20794;-71
2021/08/01 01:16:44;;;;;;;12.27;11.27;;;19.00;99.90;;;;;;5102224;28;20398;-71
2021/08/01 01:19:19;;;;;;;13.43;12.37;;;19.00;99.90;;;;;;5104812;28;20938;-72
2021/08/01 01:22:12;;;;;;;12.40;11.30;;;19.00;99.90;;;;;;5102409;28;20717;-71
2021/08/01 01:24:40;;;;;;;12.20;11.20;;;19.00;99.90;;;;;;5093086;28;20415;-72
2021/08/01 01:27:35;;;;;;;12.20;11.27;;;19.00;99.90;;;;;;5101402;28;20957;-71
2021/08/01 01:30:03;;;;;;;11.87;10.97;;;19.00;99.90;;;;;;5101012;28;20875;-72
2021/08/01 01:32:53;;;;;;;11.20;10.30;;;19.00;99.90;;;;;;5104939;27;20453;-72
2021/08/01 01:35:19;;;;;;;11.17;10.27;;;19.00;99.90;;;;;;5115418;28;20484;-71
2021/08/01 01:37:47;;;;;;;12.10;11.20;;;19.00;99.90;;;;;;5114552;28;20405;-71
2021/08/01 01:40:17;;;;;;;11.17;10.30;;;18.90;99.90;;;;;;5115438;28;20735;-70
2021/08/01 01:42:43;;;;;;;11.60;10.80;;;18.90;99.90;;;;;;5073862;28;20399;-71
2021/08/01 01:45:10;;;;;;;11.93;11.00;;;18.90;99.90;;;;;;5074427;28;20946;-72
2021/08/01 01:47:37;;;;;;;12.20;11.20;;;18.90;99.90;;;;;;5073926;28;20416;-71
2021/08/01 01:50:04;;;;;;;12.00;10.90;;;18.90;99.90;;;;;;5074411;28;20427;-71
2021/08/01 01:52:30;;;;;;;12.10;11.07;;;18.90;99.90;;;;;;5073114;28;20849;-71
2021/08/01 01:54:57;;;;;;;11.47;10.47;;;18.90;99.90;;;;;;5072781;28;20968;-71
2021/08/01 01:57:22;;;;;;;10.90;10.10;;;18.90;99.90;;;;;;5074273;28;20453;-75
2021/08/01 01:59:49;;;;;;;12.03;11.13;;;18.80;99.90;;;;;;5073952;28;20411;-71
2021/08/01 02:02:14;;;;;;;12.37;11.17;;;18.90;99.90;;;;;;5073154;28;20184;-70
2021/08/01 02:04:40;;;;;;;12.30;11.20;;;18.90;99.90;;;;;;5073439;28;20500;-71
2021/08/01 02:07:06;;;;;;;12.47;11.47;;;18.90;99.90;;;;;;5074319;28;20696;-71
2021/08/01 02:09:46;;;;;;;11.87;10.93;;;18.90;99.90;;;;;;5073305;28;20423;-71
2021/08/01 02:12:26;;;;;;;11.60;10.70;;;18.90;99.90;;;;;;5073966;28;20435;-70
2021/08/01 02:15:06;;;;;;;12.60;11.60;;;18.90;99.90;;;;;;5073744;28;20474;-70
2021/08/01 02:17:34;;;;;;;11.70;10.80;;;18.90;99.90;;;;;;5073098;28;20478;-72
2021/08/01 02:20:03;;;;;;;12.47;11.40;;;18.90;99.90;;;;;;5074034;28;20450;-70
2021/08/01 02:22:30;;;;;;;12.37;11.27;;;18.90;99.90;;;;;;5073172;28;20972;-72
2021/08/01 02:24:57;;;;;;;13.47;12.23;;;18.90;99.90;;;;;;5074186;28;20403;-71
2021/08/01 02:27:23;;;;;;;13.50;12.40;;;19.00;99.90;;;;;;5073774;28;20494;-71
2021/08/01 02:29:50;;;;;;;12.73;11.43;;;19.00;99.90;;;;;;5073082;28;20411;-71
2021/08/01 02:32:17;;;;;;;13.43;12.33;;;19.00;99.90;;;;;;5073598;28;20520;-71
2021/08/01 02:34:44;;;;;;;12.10;11.20;;;19.00;99.90;;;;;;5072763;28;20457;-72
2021/08/01 02:37:11;;;;;;;12.97;11.90;;;19.00;99.90;;;;;;5073295;28;20431;-71
2021/08/01 02:39:37;;;;;;;13.27;12.17;;;19.00;99.90;;;;;;5072778;28;20460;-70
2021/08/01 02:42:04;;;;;;;12.13;11.03;;;19.00;99.90;;;;;;5103663;28;20492;-70
2021/08/01 02:44:35;;;;;;;12.33;11.40;;;19.00;99.90;;;;;;5113142;28;20223;-72
2021/08/01 02:47:04;;;;;;;11.30;10.40;;;19.00;99.90;;;;;;5112786;28;20519;-70
2021/08/01 02:49:33;;;;;;;12.20;11.20;;;19.00;99.90;;;;;;5113225;28;20425;-75
2021/08/01 02:52:01;;;;;;;12.53;11.47;;;19.00;99.90;;;;;;5113300;28;20463;-71
2021/08/01 02:54:27;;;;;;;12.77;11.67;;;19.00;99.90;;;;;;5113259;28;20908;-75
2021/08/01 02:57:00;;;;;;;11.73;10.83;;;19.00;99.90;;;;;;5113372;28;20418;-70
2021/08/01 02:59:27;;;;;;;12.10;11.10;;;19.00;99.90;;;;;;5113475;28;20554;-75
2021/08/01 03:01:55;;;;;;;12.00;11.00;;;19.00;99.90;;;;;;5113338;28;20433;-71
2021/08/01 03:04:25;;;;;;;12.47;11.37;;;19.00;99.90;;;;;;5113759;28;20414;-71
2021/08/01 03:06:53;;;;;;;11.87;10.87;;;19.00;99.90;;;;;;5112380;28;20488;-71
2021/08/01 03:09:19;;;;;;;12.73;11.70;;;19.00;99.90;;;;;;5113604;28;20448;-71
2021/08/01 03:11:44;;;;;;;13.40;12.30;;;19.00;99.90;;;;;;5112358;28;20972;-71
2021/08/01 03:14:11;;;;;;;12.73;11.73;;;19.00;99.90;;;;;;5113044;28;20792;-70
2021/08/01 03:16:37;;;;;;;13.30;12.30;;;19.00;99.90;;;;;;5112645;28;20175;-71
2021/08/01 03:19:03;;;;;;;14.10;12.70;;;19.00;99.90;;;;;;5113327;28;20949;-71
2021/08/01 03:21:29;;;;;;;14.23;12.93;;;19.10;99.90;;;;;;5112987;28;20214;-76
2021/08/01 03:23:54;;;;;;;12.57;11.57;;;19.10;99.90;;;;;;5112954;28;20278;-71
2021/08/01 03:26:20;;;;;;;13.87;12.67;;;19.10;99.90;;;;;;5112151;28;20667;-71
2021/08/01 03:28:46;;;;;;;14.20;13.10;;;19.10;99.90;;;;;;5111139;28;20236;-71
2021/08/01 03:31:12;;;;;;;13.63;12.43;;;19.10;99.90;;;;;;5113265;28;20171;-71
2021/08/01 03:33:37;;;;;;;14.57;13.13;;;19.10;99.90;;;;;;5112188;28;20465;-71
2021/08/01 03:36:03;;;;;;;13.50;12.50;;;19.10;99.90;;;;;;5113388;28;20171;-71
2021/08/01 03:38:29;;;;;;;14.70;13.20;;;19.10;99.90;;;;;;5112819;28;20180;-76
2021/08/01 03:40:55;;;;;;;14.20;12.90;;;19.10;99.90;;;;;;5106825;28;20411;-71
2021/08/01 03:43:21;;;;;;;14.27;13.07;;;19.10;99.90;;;;;;5092701;28;20176;-71
2021/08/01 03:45:47;;;;;;;15.67;14.17;;;19.10;99.90;;;;;;5092145;28;20450;-71
2021/08/01 03:48:12;;;;;;;14.87;13.47;;;19.10;99.90;;;;;;5091489;28;20482;-71
2021/08/01 03:50:38;;;;;;;14.83;13.53;;;19.10;99.90;;;;;;5091473;28;20172;-71
2021/08/01 03:53:04;;;;;;;15.37;13.97;;;19.00;99.90;;;;;;5092307;28;20215;-71
2021/08/01 03:55:29;;;;;;;15.67;14.27;;;18.90;99.90;;;;;;5092185;28;20233;-76
2021/08/01 03:57:55;;;;;;;14.00;12.90;;;18.90;99.90;;;;;;5092023;28;20526;-71
2021/08/01 04:00:21;;;;;;;14.33;13.13;;;18.90;99.90;;;;;;5092571;28;20176;-71
2021/08/01 04:02:46;;;;;;;14.13;13.00;;;18.90;99.90;;;;;;5091717;28;20647;-71
2021/08/01 04:05:12;;;;;;;14.00;12.80;;;18.90;99.90;;;;;;5092584;28;20172;-72
2021/08/01 04:07:38;;;;;;;15.00;13.60;;;18.90;99.90;;;;;;5091615;28;20255;-72
2021/08/01 04:10:04;;;;;;;15.07;13.63;;;18.90;99.90;;;;;;5091139;28;20642;-71
2021/08/01 04:12:32;;;;;;;15.60;14.03;;;18.90;99.90;;;;;;5091890;28;20200;-76
2021/08/01 04:14:57;;;;;;;15.10;13.80;;;18.90;99.90;;;;;;5092335;28;20414;-71
2021/08/01 04:17:23;;;;;;;15.73;14.40;;;18.90;99.90;;;;;;5090468;28;20894;-71
2021/08/01 04:19:49;;;;;;;15.77;14.27;;;19.00;99.90;;;;;;5091617;28;20179;-71
2021/08/01 04:22:16;;;;;;;15.07;13.70;;;19.00;99.90;;;;;;5092292;28;20407;-71
2021/08/01 04:24:42;;;;;;;15.40;14.00;;;19.00;99.90;;;;;;5091438;28;20411;-72
2021/08/01 04:27:08;;;;;;;15.50;14.10;;;19.00;99.90;;;;;;5092286;28;20819;-71
2021/08/01 04:29:34;;;;;;;15.33;13.93;;;19.00;99.90;;;;;;5091839;28;20232;-75
2021/08/01 04:32:00;;;;;;;17.57;15.90;;;19.00;99.90;;;;;;5091513;28;20458;-71
2021/08/01 04:34:26;;;;;;;16.73;15.00;;;19.10;99.90;;;;;;5092247;28;20180;-71
2021/08/01 04:36:52;;;;;;;15.83;14.33;;;19.10;99.90;;;;;;5091638;28;20415;-71
2021/08/01 04:39:18;;;;;;;15.70;14.30;;;19.10;99.90;;;;;;5092093;28;20395;-71
2021/08/01 04:41:44;;;;;;;16.47;14.97;;;19.10;99.90;;;;;;5091288;28;20514;-71
2021/08/01 04:44:10;;;;;;;16.00;14.60;;;19.10;99.90;;;;;;5090362;28;20234;-71
2021/08/01 04:46:36;;;;;;;16.80;15.20;;;19.10;99.90;;;;;;5090146;28;20682;-77
2021/08/01 04:49:01;;;;;;;15.90;14.53;;;19.20;99.90;;;;;;5092171;28;20438;-71
2021/08/01 04:51:27;;;;;;;17.27;15.67;;;19.20;99.90;;;;;;5090761;28;20230;-71
2021/08/01 04:53:53;;;;;;;16.83;15.40;;;19.20;99.90;;;;;;5090711;28;20187;-71
2021/08/01 04:56:18;;;;;;;16.83;15.27;;;19.20;99.90;;;;;;5091727;28;20176;-71
2021/08/01 04:58:44;;;;;;;16.40;15.00;;;19.20;99.90;;;;;;5090893;28;20203;-71
2021/08/01 05:01:13;;;;;;;16.93;15.40;;;19.20;99.90;;;;;;5092141;28;20576;-72
2021/08/01 05:03:39;;;;;;;17.07;15.47;;;19.30;99.90;;;;;;5089751;28;20611;-72
2021/08/01 05:06:05;;;;;;;17.70;16.07;;;19.20;99.90;;;;;;5091587;28;20434;-71
2021/08/01 05:08:31;;;;;;;17.37;15.67;;;19.30;99.90;;;;;;5091607;28;20580;-71
2021/08/01 05:10:56;;;;;;;17.80;16.00;;;19.20;99.90;;;;;;5091114;28;20612;-72
2021/08/01 05:13:22;;;;;;;17.67;16.00;;;19.30;99.90;;;;;;5090230;28;20214;-71
2021/08/01 05:15:48;;;;;;;17.50;15.80;;;19.30;99.90;;;;;;5090492;28;20176;-72
2021/08/01 05:18:14;;;;;;;17.20;15.50;;;19.30;99.90;;;;;;5091111;28;20204;-71
2021/08/01 05:20:44;;;;;;;19.67;17.77;;;19.30;99.90;;;;;;5091121;28;20867;-72
2021/08/01 05:23:10;;;;;;;18.77;16.97;;;19.30;99.90;;;;;;5091661;28;20183;-71
2021/08/01 05:25:37;;;;;;;18.07;16.30;;;19.40;99.90;;;;;;5090181;28;20390;-76
2021/08/01 05:28:03;;;;;;;19.43;17.47;;;19.40;99.90;;;;;;5091984;28;20395;-71
2021/08/01 05:30:29;;;;;;;19.10;17.23;;;19.40;99.90;;;;;;5095355;28;20403;-71
2021/08/01 05:32:54;;;;;;;19.70;17.70;;;19.40;99.90;;;;;;5094372;28;21080;-71
2021/08/01 05:35:20;;;;;;;19.17;17.27;;;19.50;99.90;;;;;;5095193;28;20285;-71
2021/08/01 05:37:46;;;;;;;20.77;18.60;;;19.50;99.90;;;;;;5094307;28;20180;-71
2021/08/01 05:40:12;;;;;;;19.40;17.50;;;19.50;99.90;;;;;;5094887;28;20545;-71
2021/08/01 05:42:38;;;;;;;18.57;16.67;;;19.50;99.90;;;;;;5093165;28;20799;-75
2021/08/01 05:45:05;;;;;;;18.27;16.50;;;19.50;99.90;;;;;;5093304;28;20515;-71
2021/08/01 05:47:31;;;;;;;18.70;17.00;;;19.50;99.90;;;;;;5093790;28;20422;-71
2021/08/01 05:49:57;;;;;;;19.63;17.63;;;19.60;99.90;;;;;;5094188;28;20409;-71
2021/08/01 05:52:23;;;;;;;18.77;16.87;;;19.60;99.90;;;;;;5094858;28;20208;-71
2021/08/01 05:54:53;;;;;;;19.37;17.47;;;19.70;99.90;;;;;;5094096;28;20756;-71
2021/08/01 05:57:19;;;;;;;19.80;17.80;;;19.70;99.90;;;;;;5094929;28;20435;-71
2021/08/01 05:59:45;;;;;;;18.90;17.00;;;19.70;99.90;;;;;;5092718;28;20459;-71
2021/08/01 06:02:11;;;;;;;21.00;19.00;;;19.70;99.90;;;;;;5092996;28;20426;-71
2021/08/01 06:04:38;;;;;;;18.30;16.50;;;19.70;99.90;;;;;;5094471;28;20172;-76
2021/08/01 06:07:05;;;;;;;20.63;18.47;;;19.70;99.90;;;;;;5094219;28;20406;-71
2021/08/01 06:09:31;;;;;;;19.27;17.40;;;19.70;99.90;;;;;;5094599;28;20415;-71
2021/08/01 06:11:57;;;;;;;18.50;16.77;;;19.70;99.90;;;;;;5093199;28;20510;-71
2021/08/01 06:14:22;;;;;;;17.73;16.03;;;19.70;99.90;;;;;;5094517;28;20181;-71
2021/08/01 06:16:48;;;;;;;18.63;16.87;;;19.70;99.90;;;;;;5093371;28;20581;-71
2021/08/01 06:19:14;;;;;;;19.70;14.43;;;19.70;99.90;;;;;;5093129;28;20686;-70
2021/08/01 06:21:40;;;;;;;16.00;14.60;;;19.70;99.90;;;;;;5093902;28;20198;-76
2021/08/01 06:24:05;;;;;;;17.40;15.80;;;19.70;99.90;;;;;;5093614;28;20188;-71
2021/08/01 06:26:31;;;;;;;16.83;15.33;;;19.70;99.90;;;;;;5094321;28;20177;-71
2021/08/01 06:28:57;;;;;;;17.43;15.83;;;19.70;99.90;;;;;;5093422;28;20697;-71
2021/08/01 06:31:22;;;;;;;16.93;14.97;;;19.70;99.90;;;;;;5093589;28;20624;-71
2021/08/01 06:33:48;;;;;;;16.87;15.10;;;19.70;99.90;;;;;;5092225;28;20179;-70
2021/08/01 06:36:15;;;;;;;17.33;15.77;;;19.60;99.90;;;;;;5092476;28;20242;-72
2021/08/01 06:38:44;;;;;;;15.40;14.20;;;19.60;99.90;;;;;;5091872;28;20242;-77
2021/08/01 06:41:10;;;;;;;14.73;13.47;;;19.60;99.90;;;;;;5092262;28;20850;-71
2021/08/01 06:43:36;;;;;;;14.27;12.90;;;19.70;99.90;;;;;;5093377;28;20414;-71
2021/08/01 06:46:02;;;;;;;14.80;13.60;;;19.70;99.90;;;;;;5092132;28;20422;-71
2021/08/01 06:48:28;;;;;;;14.10;12.90;;;19.70;99.90;;;;;;5093785;28;20426;-71
2021/08/01 06:50:54;;;;;;;14.73;13.47;;;19.60;99.90;;;;;;5091957;28;20882;-71
2021/08/01 06:53:20;;;;;;;14.83;13.53;;;19.60;99.90;;;;;;5093347;28;20636;-71
2021/08/01 06:55:46;;;;;;;14.40;13.13;;;19.70;99.90;;;;;;5092884;28;20215;-71
2021/08/01 06:58:17;;;;;;;14.97;13.67;;;19.80;99.90;;;;;;5092988;28;20196;-71
2021/08/01 07:00:45;;;;;;;13.20;12.00;;;19.80;99.90;;;;;;5087808;28;20489;-78
2021/08/01 07:03:11;;;;;;;14.10;12.80;;;19.90;99.90;;;;;;5093499;28;20486;-71
2021/08/01 07:05:36;;;;;;;12.50;11.40;;;20.00;99.90;;;;;;5093081;28;20422;-72
2021/08/01 07:08:02;;;;;;;13.13;12.13;;;20.20;99.90;;;;;;5092714;28;20168;-72
2021/08/01 07:10:28;;;;;;;11.70;10.70;;;20.30;99.90;;;;;;5093120;28;20581;-73
2021/08/01 07:12:54;;;;;;;12.07;11.10;;;20.30;99.90;;;;;;5092366;28;20588;-73
2021/08/01 07:15:24;;;;;;;13.17;11.97;;;20.40;99.90;;;;;;5092944;28;20185;-72
2021/08/01 07:17:54;;;;;;;11.97;11.00;;;20.40;99.90;;;;;;5074476;28;20217;-72
2021/08/01 07:20:20;;;;;;;12.57;11.40;;;20.50;99.90;;;;;;5092903;28;20501;-72
2021/08/01 07:22:46;;;;;;;12.60;11.60;;;20.50;99.90;;;;;;5092464;28;20506;-73
2021/08/01 07:25:11;;;;;;;16.00;14.50;;;20.70;99.90;;;;;;5097793;28;20171;-72
2021/08/01 07:27:37;;;;;;;15.03;13.70;;;20.60;99.90;;;;;;5099865;28;20191;-73
2021/08/01 07:30:04;;;;;;;14.10;12.73;;;20.60;99.90;;;;;;5091859;28;20639;-72
2021/08/01 07:32:30;;;;;;;13.00;12.07;;;20.70;99.90;;;;;;5092647;28;20200;-72
2021/08/01 07:34:56;;;;;;;13.50;12.37;;;20.80;99.90;;;;;;5092230;28;20497;-72
2021/08/01 07:37:22;;;;;;;13.17;11.97;;;20.80;99.90;;;;;;5092930;28;20497;-72
2021/08/01 07:39:47;;;;;;;14.30;12.87;;;21.00;99.90;;;;;;5090580;28;20164;-73
2021/08/01 07:42:13;;;;;;;13.77;12.47;;;21.10;99.90;;;;;;5126285;27;20179;-72
2021/08/01 07:44:46;;;;;;;16.60;15.10;;;21.20;99.90;;;;;;5098741;28;20255;-72
2021/08/01 07:47:13;;;;;;;16.43;15.03;;;21.40;99.90;;;;;;5110845;28;20164;-72
2021/08/01 07:49:39;;;;;;;14.50;13.20;;;21.40;99.90;;;;;;5093987;28;20483;-72
2021/08/01 07:52:05;;;;;;;12.97;11.77;;;21.40;99.90;;;;;;5089138;28;20942;-72
2021/08/01 07:54:30;;;;;;;14.20;12.80;;;21.50;99.90;;;;;;5090322;28;20255;-72
2021/08/01 07:56:56;;;;;;;11.83;10.70;;;21.50;99.90;;;;;;5091134;28;20411;-72
2021/08/01 07:59:22;;;;;;;13.20;12.00;;;21.60;99.90;;;;;;5092172;28;20177;-72
2021/08/01 08:01:48;;;;;;;12.97;11.97;;;21.70;99.90;;;;;;5090364;28;20479;-72
2021/08/01 08:04:13;;;;;;;13.70;12.30;;;21.80;99.50;;;;;;5092354;28;20172;-72
2021/08/01 08:06:39;;;;;;;12.80;11.70;;;21.80;99.00;;;;;;5092195;28;20184;-72
2021/08/01 08:09:05;;;;;;;13.17;12.07;;;21.80;99.00;;;;;;5090741;28;20180;-72
2021/08/01 08:11:31;;;;;;;12.83;11.57;;;21.70;98.20;;;;;;5092147;28;20233;-72
2021/08/01 08:13:57;;;;;;;50.30;45.60;;;21.80;98.20;;;;;;5091030;28;20174;-71
2021/08/01 08:16:23;;;;;;;78.77;60.83;;;21.80;98.10;;;;;;5102744;28;20417;-71
2021/08/01 08:18:50;;;;;;;14.60;13.17;;;21.80;97.90;;;;;;5099105;28;20460;-73
2021/08/01 08:21:19;;;;;;;12.07;10.87;;;21.90;99.20;;;;;;5092195;28;20187;-72
2021/08/01 08:23:45;;;;;;;59.23;49.83;;;21.90;98.50;;;;;;5092107;28;20821;-78
2021/08/01 08:26:11;;;;;;;66.80;52.43;;;21.90;97.40;;;;;;5091896;28;20417;-72
2021/08/01 08:28:37;;;;;;;14.70;13.40;;;21.90;97.90;;;;;;5092235;28;20410;-72
2021/08/01 08:31:02;;;;;;;11.37;10.40;;;21.80;96.80;;;;;;5091430;28;20230;-72
2021/08/01 08:33:28;;;;;;;14.17;11.23;;;21.80;96.80;;;;;;5092108;28;20498;-72
2021/08/01 08:35:54;;;;;;;11.07;9.83;;;21.70;97.20;;;;;;5120371;28;20652;-73
2021/08/01 08:38:19;;;;;;;11.30;10.00;;;21.80;97.60;;;;;;5091742;28;20187;-72
2021/08/01 08:40:46;;;;;;;11.67;10.57;;;21.70;97.40;;;;;;5091216;28;20625;-79
2021/08/01 08:43:12;;;;;;;10.07;9.27;;;21.80;97.30;;;;;;5091603;28;20176;-72
2021/08/01 08:45:44;;;;;;;9.40;8.70;;;21.80;97.00;;;;;;5091640;28;20446;-72
2021/08/01 08:48:11;;;;;;;9.77;8.97;;;21.80;96.50;;;;;;5091383;28;20421;-72
2021/08/01 08:50:39;;;;;;;7.90;7.30;;;21.80;95.80;;;;;;5091136;28;20407;-72
2021/08/01 08:53:07;;;;;;;9.60;8.80;;;21.80;96.60;;;;;;5091808;28;20827;-71
2021/08/01 08:55:34;;;;;;;174.20;115.07;;;21.90;96.60;;;;;;5091317;28;20406;-72
2021/08/01 08:58:03;;;;;;;48.87;43.80;;;22.00;96.60;;;;;;5091821;28;20402;-72
2021/08/01 09:00:32;;;;;;;9.83;8.70;;;22.20;96.90;;;;;;5092496;28;20386;-72
2021/08/01 09:02:58;;;;;;;10.13;9.27;;;22.20;95.90;;;;;;5092083;28;20458;-72
2021/08/01 09:05:25;;;;;;;9.80;9.00;;;22.20;96.10;;;;;;5096209;28;20415;-72
2021/08/01 09:07:51;;;;;;;8.23;7.63;;;22.30;95.30;;;;;;5095566;28;20402;-72
2021/08/01 09:10:17;;;;;;;9.07;8.47;;;22.30;95.40;;;;;;5096158;28;20456;-72
2021/08/01 09:12:45;;;;;;;14.50;13.03;;;22.30;95.70;;;;;;5096110;28;20203;-72
2021/08/01 09:15:18;;;;;;;10.70;9.90;;;22.40;95.00;;;;;;5095477;28;20164;-72
2021/08/01 09:17:45;;;;;;;9.13;8.43;;;22.40;94.50;;;;;;5096131;28;20403;-72
2021/08/01 09:20:31;;;;;;;8.37;7.77;;;22.40;94.60;;;;;;5096125;28;20399;-72
2021/08/01 09:23:00;;;;;;;8.03;7.37;;;22.30;94.40;;;;;;5099778;28;20405;-72
2021/08/01 09:25:28;;;;;;;7.67;7.07;;;22.30;95.00;;;;;;5103933;28;20416;-72
2021/08/01 09:28:20;;;;;;;10.23;9.33;;;22.50;95.00;;;;;;5095243;28;20402;-72
2021/08/01 09:30:53;;;;;;;7.17;6.70;;;22.70;95.20;;;;;;5075566;28;20482;-72
2021/08/01 09:33:34;;;;;;;7.03;6.63;;;22.90;94.30;;;;;;5094778;28;20491;-72
2021/08/01 09:36:07;;;;;;;6.43;5.87;;;23.10;93.50;;;;;;5093730;28;20414;-72
2021/08/01 09:38:51;;;;;;;136.23;95.03;;;23.30;92.20;;;;;;5095640;28;20463;-72
2021/08/01 09:41:33;;;;;;;11.37;10.30;;;23.50;93.20;;;;;;5095342;28;20737;-72
2021/08/01 09:44:01;;;;;;;7.40;6.90;;;23.60;92.30;;;;;;5094881;28;20454;-72
2021/08/01 09:46:37;;;;;;;9.93;9.13;;;23.60;91.90;;;;;;5095166;28;20405;-72
2021/08/01 09:49:10;;;;;;;8.17;7.67;;;23.60;91.80;;;;;;5094617;28;20904;-72
2021/08/01 09:51:41;;;;;;;10.10;9.07;;;23.50;92.30;;;;;;5095318;28;20410;-72
2021/08/01 09:54:07;;;;;;;9.87;9.07;;;23.40;92.10;;;;;;5094324;28;20509;-72
2021/08/01 09:56:33;;;;;;;11.80;10.80;;;23.20;93.10;;;;;;5094761;28;20441;-71
2021/08/01 09:59:02;;;;;;;96.60;81.13;;;23.10;93.10;;;;;;5093714;28;20418;-72
2021/08/01 10:01:28;;;;;;;8.90;8.20;;;23.10;92.90;;;;;;5094692;28;20407;-72
2021/08/01 10:03:54;;;;;;;7.77;7.17;;;23.00;93.10;;;;;;5094450;28;20434;-72
2021/08/01 10:06:21;;;;;;;7.37;6.87;;;22.90;92.40;;;;;;5094405;28;20463;-71
2021/08/01 10:08:54;;;;;;;8.83;7.93;;;22.90;94.10;;;;;;5093919;28;20433;-72
2021/08/01 10:11:25;;;;;;;10.60;9.70;;;23.10;94.20;;;;;;5094529;28;20402;-72
2021/08/01 10:13:52;;;;;;;8.93;8.33;;;23.30;95.00;;;;;;5093909;28;20485;-79
2021/08/01 10:16:19;;;;;;;9.63;8.80;;;23.50;94.00;;;;;;5092943;28;20932;-72
2021/08/01 10:18:48;;;;;;;9.60;8.90;;;23.50;92.80;;;;;;5094393;28;20409;-72
2021/08/01 10:21:20;;;;;;;7.33;6.93;;;23.50;92.40;;;;;;5107718;28;20425;-72
2021/08/01 10:23:55;;;;;;;10.00;9.17;;;23.40;91.60;;;;;;5101914;28;20436;-73
2021/08/01 10:26:26;;;;;;;10.80;10.00;;;23.60;93.10;;;;;;5074514;28;20407;-72
2021/08/01 10:28:54;;;;;;;6.90;6.40;;;23.60;92.10;;;;;;5073857;28;20398;-74
2021/08/01 10:31:36;;;;;;;7.80;7.10;;;23.50;92.10;;;;;;5073978;28;20929;-72
2021/08/01 10:34:47;;;;;;;6.27;5.87;;;23.50;92.70;;;;;;5079450;28;20448;-72
2021/08/01 10:37:44;;;;;;;6.83;6.23;;;23.50;92.20;;;;;;5051258;28;20446;-72
2021/08/01 10:40:14;;;;;;;7.17;6.50;;;23.60;94.00;;;;;;5064047;28;20423;-72
2021/08/01 10:42:44;;;;;;;8.43;7.60;;;23.60;93.20;;;;;;5094295;28;20414;-72
2021/08/01 10:45:11;;;;;;;6.23;5.80;;;23.60;93.10;;;;;;5093294;28;20462;-72
2021/08/01 10:47:42;;;;;;;7.70;7.20;;;23.60;91.70;;;;;;5094253;28;20418;-72
2021/08/01 10:50:09;;;;;;;6.73;6.30;;;23.60;91.80;;;;;;5093663;28;20402;-72
2021/08/01 10:52:35;;;;;;;7.07;6.67;;;23.50;92.00;;;;;;5092756;28;20462;-72
2021/08/01 10:55:04;;;;;;;7.30;6.70;;;23.60;93.10;;;;;;5093454;28;20415;-72
2021/08/01 10:57:31;;;;;;;6.70;6.30;;;23.80;92.70;;;;;;5094396;28;20406;-72
2021/08/01 11:00:04;;;;;;;6.70;6.20;;;23.90;90.70;;;;;;5093333;28;20433;-72
2021/08/01 11:02:31;;;;;;;6.50;6.07;;;24.10;91.80;;;;;;5093775;28;20419;-71
2021/08/01 11:05:18;;;;;;;9.27;8.37;;;24.20;91.70;;;;;;5093343;28;20410;-72
2021/08/01 11:07:47;;;;;;;8.20;7.60;;;24.50;90.20;;;;;;5093496;28;20500;-71
2021/08/01 11:10:22;;;;;;;7.00;6.40;;;24.50;88.40;;;;;;5093159;28;20882;-72
2021/08/01 11:12:47;;;;;;;6.57;6.10;;;24.60;89.20;;;;;;5092464;28;20499;-72
2021/08/01 11:15:15;;;;;;;35.27;31.50;;;24.70;88.10;;;;;;5093581;28;20410;-72
2021/08/01 11:17:41;;;;;;;48.73;43.37;;;24.90;89.50;;;;;;5096220;28;20239;-73
2021/08/01 11:20:15;;;;;;;10.60;9.77;;;25.00;88.80;;;;;;5094556;28;20529;-74
2021/08/01 11:22:44;;;;;;;6.63;6.23;;;25.10;89.60;;;;;;5092193;28;20650;-72
2021/08/01 11:25:22;;;;;;;6.33;5.73;;;25.00;89.40;;;;;;5092192;28;20505;-69
2021/08/01 11:28:09;;;;;;;6.30;5.80;;;25.10;88.90;;;;;;5097374;28;20436;-74
2021/08/01 11:30:53;;;;;;;6.13;5.73;;;25.20;84.10;;;;;;5100817;28;20457;-72
2021/08/01 11:33:36;;;;;;;6.17;5.77;;;25.20;87.80;;;;;;5098822;28;20489;-71
2021/08/01 11:36:11;;;;;;;5.90;5.43;;;25.30;85.90;;;;;;5096278;28;20418;-75
2021/08/01 11:38:57;;;;;;;7.50;5.97;;;25.30;82.30;;;;;;5099198;28;20409;-72
2021/08/01 11:41:35;;;;;;;6.50;6.00;;;25.40;85.60;;;;;;5098810;28;20419;-72
2021/08/01 11:44:22;;;;;;;7.10;6.60;;;25.40;85.20;;;;;;5096729;28;20453;-72
2021/08/01 11:46:52;;;;;;;6.23;5.93;;;25.40;86.30;;;;;;5099952;28;20539;-72
2021/08/01 11:49:27;;;;;;;6.60;6.10;;;25.40;84.90;;;;;;5099576;28;20426;-72
2021/08/01 11:51:55;;;;;;;32.53;29.07;;;25.50;84.50;;;;;;5096866;28;20841;-72
2021/08/01 11:54:28;;;;;;;54.77;45.43;;;25.60;84.90;;;;;;5102413;28;20418;-71
2021/08/01 11:57:09;;;;;;;13.70;12.60;;;25.50;84.30;;;;;;5106409;28;20429;-72
2021/08/01 11:59:34;;;;;;;7.90;7.40;;;25.60;83.40;;;;;;5106640;28;20490;-71
2021/08/01 12:02:01;;;;;;;6.70;6.30;;;25.30;80.40;;;;;;5107564;28;20442;-77
2021/08/01 12:04:28;;;;;;;6.87;6.47;;;25.30;86.30;;;;;;5101212;28;20169;-71
2021/08/01 12:06:55;;;;;;;6.70;6.30;;;25.30;84.80;;;;;;5101310;28;20410;-73
2021/08/01 12:09:30;;;;;;;6.30;5.90;;;25.30;85.80;;;;;;5100249;28;20456;-72
2021/08/01 12:12:00;;;;;;;6.27;5.80;;;25.40;82.70;;;;;;5098882;28;20436;-78
2021/08/01 12:14:38;;;;;;;6.50;6.00;;;25.30;80.50;;;;;;5100140;28;20422;-73
2021/08/01 12:17:08;;;;;;;6.60;6.10;;;25.20;83.90;;;;;;5094379;28;20436;-71
2021/08/01 12:19:42;;;;;;;6.80;6.37;;;25.30;86.50;;;;;;5102095;28;20397;-71
2021/08/01 12:22:12;;;;;;;7.00;6.50;;;25.30;85.00;;;;;;5101302;28;20410;-72
2021/08/01 12:24:47;;;;;;;10.50;9.60;;;25.40;83.40;;;;;;5098622;28;20930;-71
2021/08/01 12:27:18;;;;;;;6.43;5.83;;;25.40;81.90;;;;;;5096188;28;20425;-73
2021/08/01 12:29:53;;;;;;;5.70;5.40;;;25.40;81.70;;;;;;5100858;28;20417;-72
2021/08/01 12:32:29;;;;;;;6.33;5.83;;;25.50;80.10;;;;;;5097848;28;20471;-73
2021/08/01 12:35:04;;;;;;;6.13;5.83;;;25.50;77.50;;;;;;5098217;28;20827;-74
2021/08/01 12:37:31;;;;;;;7.90;7.30;;;25.40;78.10;;;;;;5102315;28;20432;-72
2021/08/01 12:39:56;;;;;;;7.80;7.10;;;25.30;78.70;;;;;;5104161;28;20481;-74